sensor_id;sensor_type;location;lat;lon;timestamp;P1;durP1;ratioP1;P2;durP2;ratioP2
50363;SDS011;36272;59.400;17.982;2023-07-09T00:02:07;4.47;;;2.60;;
50363;SDS011;36272;59.400;17.982;2023-07-09T00:12:35;4.95;;;2.70;;
50363;SDS011;36272;59.400;17.982;2023-07-09T00:17:37;4.67;;;2.60;;
50363;SDS011;36272;59.400;17.982;2023-07-09T00:22:41;6.57;;;2.78;;
50363;SDS011;36272;59.400;17.982;2023-07-09T00:27:43;3.25;;;2.50;;
50363;SDS011;36272;59.400;17.982;2023-07-09T00:32:54;4.30;;;2.60;;
50363;SDS011;36272;59.400;17.982;2023-07-09T00:37:56;7.20;;;2.92;;
50363;SDS011;36272;59.400;17.982;2023-07-09T00:43:01;5.78;;;3.03;;
50363;SDS011;36272;59.400;17.982;2023-07-09T00:48:06;6.13;;;2.70;;
50363;SDS011;36272;59.400;17.982;2023-07-09T00:58:25;4.68;;;2.70;;
50363;SDS011;36272;59.400;17.982;2023-07-09T01:03:34;3.80;;;2.53;;
50363;SDS011;36272;59.400;17.982;2023-07-09T01:08:39;7.97;;;3.10;;
50363;SDS011;36272;59.400;17.982;2023-07-09T01:13:44;6.25;;;2.85;;
50363;SDS011;36272;59.400;17.982;2023-07-09T01:18:48;3.72;;;2.60;;
50363;SDS011;36272;59.400;17.982;2023-07-09T01:23:49;8.48;;;2.90;;
50363;SDS011;36272;59.400;17.982;2023-07-09T01:28:56;4.57;;;2.95;;
50363;SDS011;36272;59.400;17.982;2023-07-09T01:33:58;3.42;;;2.60;;
50363;SDS011;36272;59.400;17.982;2023-07-09T01:39:00;6.70;;;2.85;;
50363;SDS011;36272;59.400;17.982;2023-07-09T01:44:02;7.90;;;3.10;;
50363;SDS011;36272;59.400;17.982;2023-07-09T01:49:03;4.82;;;3.03;;
50363;SDS011;36272;59.400;17.982;2023-07-09T01:54:08;4.93;;;3.10;;
50363;SDS011;36272;59.400;17.982;2023-07-09T01:59:10;8.23;;;3.40;;
50363;SDS011;36272;59.400;17.982;2023-07-09T02:04:12;5.88;;;3.20;;
50363;SDS011;36272;59.400;17.982;2023-07-09T02:09:13;7.43;;;3.20;;
50363;SDS011;36272;59.400;17.982;2023-07-09T02:14:18;6.20;;;3.13;;
50363;SDS011;36272;59.400;17.982;2023-07-09T02:19:20;4.90;;;3.40;;
50363;SDS011;36272;59.400;17.982;2023-07-09T02:24:22;10.07;;;3.28;;
50363;SDS011;36272;59.400;17.982;2023-07-09T02:29:26;5.63;;;3.35;;
50363;SDS011;36272;59.400;17.982;2023-07-09T02:34:30;8.88;;;3.20;;
50363;SDS011;36272;59.400;17.982;2023-07-09T02:39:32;6.60;;;3.30;;
50363;SDS011;36272;59.400;17.982;2023-07-09T02:44:40;6.53;;;3.53;;
50363;SDS011;36272;59.400;17.982;2023-07-09T02:49:43;5.45;;;3.60;;
50363;SDS011;36272;59.400;17.982;2023-07-09T02:54:44;8.65;;;3.75;;
50363;SDS011;36272;59.400;17.982;2023-07-09T02:59:46;8.95;;;3.10;;
50363;SDS011;36272;59.400;17.982;2023-07-09T03:04:48;4.38;;;3.30;;
50363;SDS011;36272;59.400;17.982;2023-07-09T03:09:58;8.55;;;3.38;;
50363;SDS011;36272;59.400;17.982;2023-07-09T03:15:00;5.50;;;3.45;;
50363;SDS011;36272;59.400;17.982;2023-07-09T03:20:02;3.55;;;3.20;;
50363;SDS011;36272;59.400;17.982;2023-07-09T03:25:04;6.72;;;3.67;;
50363;SDS011;36272;59.400;17.982;2023-07-09T03:30:11;7.38;;;3.70;;
50363;SDS011;36272;59.400;17.982;2023-07-09T03:35:14;5.78;;;4.18;;
50363;SDS011;36272;59.400;17.982;2023-07-09T03:40:21;6.65;;;3.90;;
50363;SDS011;36272;59.400;17.982;2023-07-09T03:45:23;11.38;;;4.35;;
50363;SDS011;36272;59.400;17.982;2023-07-09T03:50:25;5.10;;;4.03;;
50363;SDS011;36272;59.400;17.982;2023-07-09T03:55:27;8.93;;;4.72;;
50363;SDS011;36272;59.400;17.982;2023-07-09T04:00:29;5.80;;;4.30;;
50363;SDS011;36272;59.400;17.982;2023-07-09T04:05:31;5.80;;;4.35;;
50363;SDS011;36272;59.400;17.982;2023-07-09T04:10:35;5.82;;;4.70;;
50363;SDS011;36272;59.400;17.982;2023-07-09T04:15:37;7.72;;;4.78;;
50363;SDS011;36272;59.400;17.982;2023-07-09T04:20:47;7.43;;;4.80;;
50363;SDS011;36272;59.400;17.982;2023-07-09T04:25:50;5.07;;;4.57;;
50363;SDS011;36272;59.400;17.982;2023-07-09T04:30:55;6.93;;;4.90;;
50363;SDS011;36272;59.400;17.982;2023-07-09T04:35:57;7.07;;;4.97;;
50363;SDS011;36272;59.400;17.982;2023-07-09T04:40:59;7.93;;;4.85;;
50363;SDS011;36272;59.400;17.982;2023-07-09T04:46:00;7.82;;;4.32;;
50363;SDS011;36272;59.400;17.982;2023-07-09T04:51:07;6.35;;;4.50;;
50363;SDS011;36272;59.400;17.982;2023-07-09T04:56:09;5.93;;;4.60;;
50363;SDS011;36272;59.400;17.982;2023-07-09T05:01:11;6.10;;;4.38;;
50363;SDS011;36272;59.400;17.982;2023-07-09T05:06:13;5.28;;;4.40;;
50363;SDS011;36272;59.400;17.982;2023-07-09T05:11:18;7.80;;;4.53;;
50363;SDS011;36272;59.400;17.982;2023-07-09T05:16:20;8.65;;;4.53;;
50363;SDS011;36272;59.400;17.982;2023-07-09T05:21:21;6.93;;;4.65;;
50363;SDS011;36272;59.400;17.982;2023-07-09T05:26:23;7.88;;;4.30;;
50363;SDS011;36272;59.400;17.982;2023-07-09T05:31:25;6.70;;;4.60;;
50363;SDS011;36272;59.400;17.982;2023-07-09T05:36:27;5.35;;;4.50;;
50363;SDS011;36272;59.400;17.982;2023-07-09T05:41:29;4.75;;;4.25;;
50363;SDS011;36272;59.400;17.982;2023-07-09T05:46:37;6.93;;;4.93;;
50363;SDS011;36272;59.400;17.982;2023-07-09T05:51:43;6.18;;;4.32;;
50363;SDS011;36272;59.400;17.982;2023-07-09T05:56:45;5.38;;;4.15;;
50363;SDS011;36272;59.400;17.982;2023-07-09T06:01:47;4.65;;;4.18;;
50363;SDS011;36272;59.400;17.982;2023-07-09T06:06:48;7.75;;;4.53;;
50363;SDS011;36272;59.400;17.982;2023-07-09T06:11:50;8.35;;;4.40;;
50363;SDS011;36272;59.400;17.982;2023-07-09T06:16:57;4.30;;;3.90;;
50363;SDS011;36272;59.400;17.982;2023-07-09T06:21:59;6.95;;;3.67;;
50363;SDS011;36272;59.400;17.982;2023-07-09T06:27:00;5.43;;;3.70;;
50363;SDS011;36272;59.400;17.982;2023-07-09T06:32:02;5.82;;;3.80;;
50363;SDS011;36272;59.400;17.982;2023-07-09T06:37:04;6.47;;;3.83;;
50363;SDS011;36272;59.400;17.982;2023-07-09T06:42:06;5.20;;;3.75;;
50363;SDS011;36272;59.400;17.982;2023-07-09T06:47:08;3.85;;;3.13;;
50363;SDS011;36272;59.400;17.982;2023-07-09T06:52:14;7.68;;;3.22;;
50363;SDS011;36272;59.400;17.982;2023-07-09T06:57:18;3.50;;;2.78;;
50363;SDS011;36272;59.400;17.982;2023-07-09T07:02:25;4.32;;;2.97;;
50363;SDS011;36272;59.400;17.982;2023-07-09T07:07:26;3.92;;;3.05;;
50363;SDS011;36272;59.400;17.982;2023-07-09T07:12:29;3.40;;;2.90;;
50363;SDS011;36272;59.400;17.982;2023-07-09T07:17:41;3.58;;;2.83;;
50363;SDS011;36272;59.400;17.982;2023-07-09T07:22:43;3.88;;;2.95;;
50363;SDS011;36272;59.400;17.982;2023-07-09T07:27:45;3.88;;;2.53;;
50363;SDS011;36272;59.400;17.982;2023-07-09T07:32:47;4.10;;;2.35;;
50363;SDS011;36272;59.400;17.982;2023-07-09T07:37:51;3.33;;;2.25;;
50363;SDS011;36272;59.400;17.982;2023-07-09T07:43:10;5.30;;;3.67;;
50363;SDS011;36272;59.400;17.982;2023-07-09T07:48:13;5.30;;;3.13;;
50363;SDS011;36272;59.400;17.982;2023-07-09T07:53:20;6.13;;;3.60;;
50363;SDS011;36272;59.400;17.982;2023-07-09T07:58:22;7.30;;;4.38;;
50363;SDS011;36272;59.400;17.982;2023-07-09T08:03:24;7.15;;;4.78;;
50363;SDS011;36272;59.400;17.982;2023-07-09T08:08:25;7.25;;;4.47;;
50363;SDS011;36272;59.400;17.982;2023-07-09T08:13:27;6.38;;;4.07;;
50363;SDS011;36272;59.400;17.982;2023-07-09T08:18:34;4.72;;;3.38;;
50363;SDS011;36272;59.400;17.982;2023-07-09T08:23:35;4.70;;;2.97;;
50363;SDS011;36272;59.400;17.982;2023-07-09T08:28:37;7.30;;;2.75;;
50363;SDS011;36272;59.400;17.982;2023-07-09T08:33:39;4.00;;;3.03;;
50363;SDS011;36272;59.400;17.982;2023-07-09T08:38:44;5.43;;;2.63;;
50363;SDS011;36272;59.400;17.982;2023-07-09T08:49:23;3.00;;;2.70;;
50363;SDS011;36272;59.400;17.982;2023-07-09T08:54:52;3.08;;;2.72;;
50363;SDS011;36272;59.400;17.982;2023-07-09T09:05:36;3.85;;;2.70;;
50363;SDS011;36272;59.400;17.982;2023-07-09T09:10:54;4.47;;;3.00;;
50363;SDS011;36272;59.400;17.982;2023-07-09T09:16:21;4.47;;;2.77;;
50363;SDS011;36272;59.400;17.982;2023-07-09T09:26:44;3.22;;;2.38;;
50363;SDS011;36272;59.400;17.982;2023-07-09T09:31:50;3.93;;;2.60;;
50363;SDS011;36272;59.400;17.982;2023-07-09T09:36:58;3.38;;;2.55;;
50363;SDS011;36272;59.400;17.982;2023-07-09T09:42:00;2.95;;;2.50;;
50363;SDS011;36272;59.400;17.982;2023-07-09T09:47:01;3.35;;;2.28;;
50363;SDS011;36272;59.400;17.982;2023-07-09T09:52:06;4.70;;;2.40;;
50363;SDS011;36272;59.400;17.982;2023-07-09T09:57:35;3.28;;;2.30;;
50363;SDS011;36272;59.400;17.982;2023-07-09T10:02:38;2.70;;;2.03;;
50363;SDS011;36272;59.400;17.982;2023-07-09T10:07:58;3.38;;;1.90;;
50363;SDS011;36272;59.400;17.982;2023-07-09T10:18:49;3.17;;;1.90;;
50363;SDS011;36272;59.400;17.982;2023-07-09T10:24:09;2.67;;;1.63;;
50363;SDS011;36272;59.400;17.982;2023-07-09T10:40:03;1.85;;;1.48;;
50363;SDS011;36272;59.400;17.982;2023-07-09T10:45:12;3.83;;;1.80;;
50363;SDS011;36272;59.400;17.982;2023-07-09T10:50:27;2.22;;;2.03;;
50363;SDS011;36272;59.400;17.982;2023-07-09T10:55:52;2.55;;;1.80;;
50363;SDS011;36272;59.400;17.982;2023-07-09T11:00:57;3.97;;;1.70;;
50363;SDS011;36272;59.400;17.982;2023-07-09T11:06:03;1.98;;;1.73;;
50363;SDS011;36272;59.400;17.982;2023-07-09T11:11:30;4.85;;;1.75;;
50363;SDS011;36272;59.400;17.982;2023-07-09T11:16:37;1.73;;;1.60;;
50363;SDS011;36272;59.400;17.982;2023-07-09T11:21:58;1.90;;;1.70;;
50363;SDS011;36272;59.400;17.982;2023-07-09T11:27:14;2.13;;;1.60;;
50363;SDS011;36272;59.400;17.982;2023-07-09T11:32:21;3.45;;;1.70;;
50363;SDS011;36272;59.400;17.982;2023-07-09T11:37:25;2.45;;;1.75;;
50363;SDS011;36272;59.400;17.982;2023-07-09T11:47:42;2.08;;;1.33;;
50363;SDS011;36272;59.400;17.982;2023-07-09T11:58:00;2.78;;;1.40;;
50363;SDS011;36272;59.400;17.982;2023-07-09T12:03:13;2.00;;;1.30;;
50363;SDS011;36272;59.400;17.982;2023-07-09T12:08:23;2.05;;;1.58;;
50363;SDS011;36272;59.400;17.982;2023-07-09T12:13:38;2.38;;;1.52;;
50363;SDS011;36272;59.400;17.982;2023-07-09T12:18:40;3.35;;;1.60;;
50363;SDS011;36272;59.400;17.982;2023-07-09T12:23:42;1.73;;;1.58;;
50363;SDS011;36272;59.400;17.982;2023-07-09T12:28:49;2.20;;;1.38;;
50363;SDS011;36272;59.400;17.982;2023-07-09T12:33:52;2.67;;;1.50;;
50363;SDS011;36272;59.400;17.982;2023-07-09T12:38:56;4.47;;;1.55;;
50363;SDS011;36272;59.400;17.982;2023-07-09T12:44:02;1.52;;;1.42;;
50363;SDS011;36272;59.400;17.982;2023-07-09T12:49:04;1.50;;;1.40;;
50363;SDS011;36272;59.400;17.982;2023-07-09T12:54:14;2.25;;;1.52;;
50363;SDS011;36272;59.400;17.982;2023-07-09T12:59:22;1.73;;;1.25;;
50363;SDS011;36272;59.400;17.982;2023-07-09T13:04:38;1.50;;;1.40;;
50363;SDS011;36272;59.400;17.982;2023-07-09T13:09:47;1.77;;;1.40;;
50363;SDS011;36272;59.400;17.982;2023-07-09T13:14:55;1.80;;;1.40;;
50363;SDS011;36272;59.400;17.982;2023-07-09T13:19:57;5.30;;;1.83;;
50363;SDS011;36272;59.400;17.982;2023-07-09T13:25:00;1.40;;;1.30;;
50363;SDS011;36272;59.400;17.982;2023-07-09T13:30:02;1.65;;;1.55;;
50363;SDS011;36272;59.400;17.982;2023-07-09T13:35:14;1.50;;;1.40;;
50363;SDS011;36272;59.400;17.982;2023-07-09T13:40:17;4.35;;;1.20;;
50363;SDS011;36272;59.400;17.982;2023-07-09T13:45:20;3.50;;;1.80;;
50363;SDS011;36272;59.400;17.982;2023-07-09T13:50:24;4.88;;;1.80;;
50363;SDS011;36272;59.400;17.982;2023-07-09T13:55:26;5.53;;;1.63;;
50363;SDS011;36272;59.400;17.982;2023-07-09T14:00:27;1.55;;;1.45;;
50363;SDS011;36272;59.400;17.982;2023-07-09T14:05:32;1.75;;;1.50;;
50363;SDS011;36272;59.400;17.982;2023-07-09T14:10:40;2.08;;;1.50;;
50363;SDS011;36272;59.400;17.982;2023-07-09T14:15:42;2.33;;;1.60;;
50363;SDS011;36272;59.400;17.982;2023-07-09T14:20:50;2.33;;;1.63;;
50363;SDS011;36272;59.400;17.982;2023-07-09T14:25:52;2.45;;;1.90;;
50363;SDS011;36272;59.400;17.982;2023-07-09T14:30:54;1.92;;;1.70;;
50363;SDS011;36272;59.400;17.982;2023-07-09T14:35:58;1.70;;;1.60;;
50363;SDS011;36272;59.400;17.982;2023-07-09T14:41:17;3.55;;;2.13;;
50363;SDS011;36272;59.400;17.982;2023-07-09T14:46:21;2.65;;;1.60;;
50363;SDS011;36272;59.400;17.982;2023-07-09T14:51:23;2.30;;;1.70;;
50363;SDS011;36272;59.400;17.982;2023-07-09T14:56:26;3.13;;;1.75;;
50363;SDS011;36272;59.400;17.982;2023-07-09T15:01:29;2.47;;;1.70;;
50363;SDS011;36272;59.400;17.982;2023-07-09T15:06:32;3.13;;;2.00;;
50363;SDS011;36272;59.400;17.982;2023-07-09T15:11:34;3.33;;;1.70;;
50363;SDS011;36272;59.400;17.982;2023-07-09T15:16:35;3.72;;;1.77;;
50363;SDS011;36272;59.400;17.982;2023-07-09T15:21:37;3.33;;;2.50;;
50363;SDS011;36272;59.400;17.982;2023-07-09T15:26:39;2.85;;;2.20;;
50363;SDS011;36272;59.400;17.982;2023-07-09T15:31:41;2.50;;;1.58;;
50363;SDS011;36272;59.400;17.982;2023-07-09T15:36:47;2.08;;;1.88;;
50363;SDS011;36272;59.400;17.982;2023-07-09T15:41:53;4.20;;;1.60;;
50363;SDS011;36272;59.400;17.982;2023-07-09T15:46:55;1.80;;;1.70;;
50363;SDS011;36272;59.400;17.982;2023-07-09T15:52:07;2.35;;;1.73;;
50363;SDS011;36272;59.400;17.982;2023-07-09T15:57:13;2.03;;;1.70;;
50363;SDS011;36272;59.400;17.982;2023-07-09T16:02:22;2.30;;;1.70;;
50363;SDS011;36272;59.400;17.982;2023-07-09T16:07:24;2.50;;;1.60;;
50363;SDS011;36272;59.400;17.982;2023-07-09T16:12:26;2.67;;;1.80;;
50363;SDS011;36272;59.400;17.982;2023-07-09T16:17:27;2.63;;;1.60;;
50363;SDS011;36272;59.400;17.982;2023-07-09T16:22:29;2.90;;;1.55;;
50363;SDS011;36272;59.400;17.982;2023-07-09T16:27:31;2.05;;;1.58;;
50363;SDS011;36272;59.400;17.982;2023-07-09T16:32:32;4.35;;;1.67;;
50363;SDS011;36272;59.400;17.982;2023-07-09T16:37:34;2.22;;;1.80;;
50363;SDS011;36272;59.400;17.982;2023-07-09T16:42:41;2.75;;;2.10;;
50363;SDS011;36272;59.400;17.982;2023-07-09T16:47:43;2.40;;;1.55;;
50363;SDS011;36272;59.400;17.982;2023-07-09T16:52:46;6.65;;;2.05;;
50363;SDS011;36272;59.400;17.982;2023-07-09T16:57:50;2.60;;;1.75;;
50363;SDS011;36272;59.400;17.982;2023-07-09T17:02:59;1.65;;;1.55;;
50363;SDS011;36272;59.400;17.982;2023-07-09T17:08:04;3.78;;;1.48;;
50363;SDS011;36272;59.400;17.982;2023-07-09T17:13:06;4.13;;;1.80;;
50363;SDS011;36272;59.400;17.982;2023-07-09T17:18:20;3.85;;;1.55;;
50363;SDS011;36272;59.400;17.982;2023-07-09T17:23:26;4.72;;;1.60;;
50363;SDS011;36272;59.400;17.982;2023-07-09T17:28:30;2.00;;;1.55;;
50363;SDS011;36272;59.400;17.982;2023-07-09T17:33:33;3.38;;;1.60;;
50363;SDS011;36272;59.400;17.982;2023-07-09T17:38:35;2.17;;;1.75;;
50363;SDS011;36272;59.400;17.982;2023-07-09T17:43:44;4.20;;;1.90;;
50363;SDS011;36272;59.400;17.982;2023-07-09T17:48:46;2.58;;;2.03;;
50363;SDS011;36272;59.400;17.982;2023-07-09T17:53:47;2.92;;;1.80;;
50363;SDS011;36272;59.400;17.982;2023-07-09T17:58:49;3.10;;;1.85;;
50363;SDS011;36272;59.400;17.982;2023-07-09T18:03:51;2.33;;;1.75;;
50363;SDS011;36272;59.400;17.982;2023-07-09T18:08:52;1.83;;;1.40;;
50363;SDS011;36272;59.400;17.982;2023-07-09T18:13:54;1.95;;;1.33;;
50363;SDS011;36272;59.400;17.982;2023-07-09T18:18:56;1.75;;;1.60;;
50363;SDS011;36272;59.400;17.982;2023-07-09T18:24:04;1.92;;;1.50;;
50363;SDS011;36272;59.400;17.982;2023-07-09T18:29:07;3.03;;;1.60;;
50363;SDS011;36272;59.400;17.982;2023-07-09T18:34:22;6.00;;;1.65;;
50363;SDS011;36272;59.400;17.982;2023-07-09T18:39:24;2.17;;;1.77;;
50363;SDS011;36272;59.400;17.982;2023-07-09T18:44:25;1.92;;;1.40;;
50363;SDS011;36272;59.400;17.982;2023-07-09T18:49:28;1.42;;;1.15;;
50363;SDS011;36272;59.400;17.982;2023-07-09T18:54:30;2.45;;;1.70;;
50363;SDS011;36272;59.400;17.982;2023-07-09T18:59:32;3.15;;;1.67;;
50363;SDS011;36272;59.400;17.982;2023-07-09T19:04:35;2.17;;;1.70;;
50363;SDS011;36272;59.400;17.982;2023-07-09T19:09:37;1.90;;;1.50;;
50363;SDS011;36272;59.400;17.982;2023-07-09T19:14:38;3.70;;;1.65;;
50363;SDS011;36272;59.400;17.982;2023-07-09T19:19:40;3.08;;;1.48;;
50363;SDS011;36272;59.400;17.982;2023-07-09T19:24:42;4.50;;;1.50;;
50363;SDS011;36272;59.400;17.982;2023-07-09T19:29:45;2.28;;;1.75;;
50363;SDS011;36272;59.400;17.982;2023-07-09T19:39:51;1.75;;;1.45;;
50363;SDS011;36272;59.400;17.982;2023-07-09T19:44:53;2.25;;;1.50;;
50363;SDS011;36272;59.400;17.982;2023-07-09T19:49:55;2.63;;;1.33;;
50363;SDS011;36272;59.400;17.982;2023-07-09T19:54:59;3.13;;;1.48;;
50363;SDS011;36272;59.400;17.982;2023-07-09T20:00:15;1.90;;;1.27;;
50363;SDS011;36272;59.400;17.982;2023-07-09T20:05:20;3.20;;;1.48;;
50363;SDS011;36272;59.400;17.982;2023-07-09T20:21:01;3.72;;;1.40;;
50363;SDS011;36272;59.400;17.982;2023-07-09T20:26:17;1.92;;;1.40;;
50363;SDS011;36272;59.400;17.982;2023-07-09T20:31:20;2.28;;;1.50;;
50363;SDS011;36272;59.400;17.982;2023-07-09T20:36:24;3.58;;;1.38;;
50363;SDS011;36272;59.400;17.982;2023-07-09T20:41:25;1.92;;;1.65;;
50363;SDS011;36272;59.400;17.982;2023-07-09T20:46:30;1.90;;;1.55;;
50363;SDS011;36272;59.400;17.982;2023-07-09T20:51:31;3.65;;;1.40;;
50363;SDS011;36272;59.400;17.982;2023-07-09T20:56:33;5.70;;;1.60;;
50363;SDS011;36272;59.400;17.982;2023-07-09T21:01:35;2.90;;;1.90;;
50363;SDS011;36272;59.400;17.982;2023-07-09T21:06:36;2.45;;;1.70;;
50363;SDS011;36272;59.400;17.982;2023-07-09T21:11:38;3.67;;;2.28;;
50363;SDS011;36272;59.400;17.982;2023-07-09T21:16:40;2.75;;;1.70;;
50363;SDS011;36272;59.400;17.982;2023-07-09T21:21:44;5.68;;;2.00;;
50363;SDS011;36272;59.400;17.982;2023-07-09T21:26:45;2.08;;;1.70;;
50363;SDS011;36272;59.400;17.982;2023-07-09T21:31:47;2.05;;;1.67;;
50363;SDS011;36272;59.400;17.982;2023-07-09T21:36:50;5.22;;;1.60;;
50363;SDS011;36272;59.400;17.982;2023-07-09T21:41:54;1.88;;;1.67;;
50363;SDS011;36272;59.400;17.982;2023-07-09T21:46:57;5.43;;;2.50;;
50363;SDS011;36272;59.400;17.982;2023-07-09T21:52:08;2.80;;;1.80;;
50363;SDS011;36272;59.400;17.982;2023-07-09T21:57:16;2.38;;;1.60;;
50363;SDS011;36272;59.400;17.982;2023-07-09T22:02:19;2.08;;;1.80;;
50363;SDS011;36272;59.400;17.982;2023-07-09T22:07:23;2.90;;;1.73;;
50363;SDS011;36272;59.400;17.982;2023-07-09T22:12:25;4.07;;;1.55;;
50363;SDS011;36272;59.400;17.982;2023-07-09T22:17:26;3.80;;;1.98;;
50363;SDS011;36272;59.400;17.982;2023-07-09T22:22:28;2.45;;;1.90;;
50363;SDS011;36272;59.400;17.982;2023-07-09T22:27:30;3.25;;;1.90;;
50363;SDS011;36272;59.400;17.982;2023-07-09T22:32:31;3.85;;;1.80;;
50363;SDS011;36272;59.400;17.982;2023-07-09T22:37:33;2.67;;;1.88;;
50363;SDS011;36272;59.400;17.982;2023-07-09T22:42:35;5.55;;;2.35;;
50363;SDS011;36272;59.400;17.982;2023-07-09T22:47:36;5.72;;;2.10;;
50363;SDS011;36272;59.400;17.982;2023-07-09T22:52:39;3.67;;;2.30;;
50363;SDS011;36272;59.400;17.982;2023-07-09T22:57:42;3.33;;;2.10;;
50363;SDS011;36272;59.400;17.982;2023-07-09T23:02:43;4.72;;;1.90;;
50363;SDS011;36272;59.400;17.982;2023-07-09T23:07:45;4.05;;;2.17;;
50363;SDS011;36272;59.400;17.982;2023-07-09T23:12:47;2.65;;;1.90;;
50363;SDS011;36272;59.400;17.982;2023-07-09T23:17:49;4.30;;;2.00;;
50363;SDS011;36272;59.400;17.982;2023-07-09T23:22:52;2.67;;;1.83;;
50363;SDS011;36272;59.400;17.982;2023-07-09T23:27:54;2.72;;;1.73;;
50363;SDS011;36272;59.400;17.982;2023-07-09T23:32:57;2.38;;;1.95;;
50363;SDS011;36272;59.400;17.982;2023-07-09T23:37:59;5.45;;;1.80;;
50363;SDS011;36272;59.400;17.982;2023-07-09T23:43:00;4.57;;;2.05;;
50363;SDS011;36272;59.400;17.982;2023-07-09T23:48:02;2.72;;;2.15;;
50363;SDS011;36272;59.400;17.982;2023-07-09T23:53:10;4.15;;;2.30;;
50363;SDS011;36272;59.400;17.982;2023-07-09T23:58:26;5.55;;;2.22;;
